sensor_id;sensor_type;location;lat;lon;timestamp;temperature;humidity
48264;DHT22;34086;51.076;13.722;2022-11-25T00:00:41;5.30;99.90
48264;DHT22;34086;51.076;13.722;2022-11-25T00:01:42;5.30;99.90
48264;DHT22;34086;51.076;13.722;2022-11-25T00:02:43;5.30;99.90
48264;DHT22;34086;51.076;13.722;2022-11-25T00:03:45;5.40;99.90
48264;DHT22;34086;51.076;13.722;2022-11-25T00:04:45;5.40;99.90
48264;DHT22;34086;51.076;13.722;2022-11-25T00:05:46;5.40;99.90
48264;DHT22;34086;51.076;13.722;2022-11-25T00:06:47;5.40;99.90
48264;DHT22;34086;51.076;13.722;2022-11-25T00:07:48;5.40;99.90
48264;DHT22;34086;51.076;13.722;2022-11-25T00:08:52;5.40;99.90
48264;DHT22;34086;51.076;13.722;2022-11-25T00:09:53;5.40;99.90
48264;DHT22;34086;51.076;13.722;2022-11-25T00:10:53;5.50;99.90
48264;DHT22;34086;51.076;13.722;2022-11-25T00:11:54;5.50;99.90
48264;DHT22;34086;51.076;13.722;2022-11-25T00:12:55;5.50;99.90
48264;DHT22;34086;51.076;13.722;2022-11-25T00:13:56;5.50;99.90
48264;DHT22;34086;51.076;13.722;2022-11-25T00:14:57;5.50;99.90
48264;DHT22;34086;51.076;13.722;2022-11-25T00:16:03;5.50;99.90
48264;DHT22;34086;51.076;13.722;2022-11-25T00:17:03;5.50;99.90
48264;DHT22;34086;51.076;13.722;2022-11-25T00:18:04;5.50;99.90
48264;DHT22;34086;51.076;13.722;2022-11-25T00:19:05;5.50;99.90
48264;DHT22;34086;51.076;13.722;2022-11-25T00:20:06;5.50;99.90
48264;DHT22;34086;51.076;13.722;2022-11-25T00:21:09;5.60;99.90
48264;DHT22;34086;51.076;13.722;2022-11-25T00:22:10;5.60;99.90
48264;DHT22;34086;51.076;13.722;2022-11-25T00:23:10;5.60;99.90
48264;DHT22;34086;51.076;13.722;2022-11-25T00:24:13;5.60;99.90
48264;DHT22;34086;51.076;13.722;2022-11-25T00:25:14;5.60;99.90
48264;DHT22;34086;51.076;13.722;2022-11-25T00:26:15;5.60;99.90
48264;DHT22;34086;51.076;13.722;2022-11-25T00:27:16;5.60;99.90
48264;DHT22;34086;51.076;13.722;2022-11-25T00:28:17;5.60;99.90
48264;DHT22;34086;51.076;13.722;2022-11-25T00:29:18;5.60;99.90
48264;DHT22;34086;51.076;13.722;2022-11-25T00:30:18;5.50;99.90
48264;DHT22;34086;51.076;13.722;2022-11-25T00:31:25;5.50;99.90
48264;DHT22;34086;51.076;13.722;2022-11-25T00:32:26;5.60;99.90
48264;DHT22;34086;51.076;13.722;2022-11-25T00:33:26;5.60;99.90
48264;DHT22;34086;51.076;13.722;2022-11-25T00:34:27;5.60;99.90
48264;DHT22;34086;51.076;13.722;2022-11-25T00:35:28;5.60;99.90
48264;DHT22;34086;51.076;13.722;2022-11-25T00:36:33;5.60;99.90
48264;DHT22;34086;51.076;13.722;2022-11-25T00:37:34;5.60;99.90
48264;DHT22;34086;51.076;13.722;2022-11-25T00:38:38;5.60;99.90
48264;DHT22;34086;51.076;13.722;2022-11-25T00:39:39;5.60;99.90
48264;DHT22;34086;51.076;13.722;2022-11-25T00:40:39;5.60;99.90
48264;DHT22;34086;51.076;13.722;2022-11-25T00:41:40;5.60;99.90
48264;DHT22;34086;51.076;13.722;2022-11-25T00:42:59;5.60;99.90
48264;DHT22;34086;51.076;13.722;2022-11-25T00:44:19;5.60;99.90
48264;DHT22;34086;51.076;13.722;2022-11-25T00:45:35;5.60;99.90
48264;DHT22;34086;51.076;13.722;2022-11-25T00:46:36;5.60;99.90
48264;DHT22;34086;51.076;13.722;2022-11-25T00:47:37;5.60;99.90
48264;DHT22;34086;51.076;13.722;2022-11-25T00:48:37;5.60;99.90
48264;DHT22;34086;51.076;13.722;2022-11-25T00:49:41;5.60;99.90
48264;DHT22;34086;51.076;13.722;2022-11-25T00:50:42;5.60;99.90
48264;DHT22;34086;51.076;13.722;2022-11-25T00:51:42;5.60;99.90
48264;DHT22;34086;51.076;13.722;2022-11-25T00:52:43;5.50;99.90
48264;DHT22;34086;51.076;13.722;2022-11-25T00:53:44;5.60;99.90
48264;DHT22;34086;51.076;13.722;2022-11-25T00:54:48;5.60;99.90
48264;DHT22;34086;51.076;13.722;2022-11-25T00:55:49;5.60;99.90
48264;DHT22;34086;51.076;13.722;2022-11-25T00:57:08;5.60;99.90
48264;DHT22;34086;51.076;13.722;2022-11-25T00:58:08;5.60;99.90
48264;DHT22;34086;51.076;13.722;2022-11-25T00:59:09;5.60;99.90
48264;DHT22;34086;51.076;13.722;2022-11-25T01:00:12;5.60;99.90
48264;DHT22;34086;51.076;13.722;2022-11-25T01:01:14;5.60;99.90
48264;DHT22;34086;51.076;13.722;2022-11-25T01:02:16;5.60;99.90
48264;DHT22;34086;51.076;13.722;2022-11-25T01:03:18;5.60;99.90
48264;DHT22;34086;51.076;13.722;2022-11-25T01:04:18;5.50;99.90
48264;DHT22;34086;51.076;13.722;2022-11-25T01:05:19;5.50;99.90
48264;DHT22;34086;51.076;13.722;2022-11-25T01:06:20;5.50;99.90
48264;DHT22;34086;51.076;13.722;2022-11-25T01:07:21;5.50;99.90
48264;DHT22;34086;51.076;13.722;2022-11-25T01:08:22;5.50;99.90
48264;DHT22;34086;51.076;13.722;2022-11-25T01:09:23;5.40;99.90
48264;DHT22;34086;51.076;13.722;2022-11-25T01:10:23;5.40;99.90
48264;DHT22;34086;51.076;13.722;2022-11-25T01:11:24;5.30;99.90
48264;DHT22;34086;51.076;13.722;2022-11-25T01:12:25;5.30;99.90
48264;DHT22;34086;51.076;13.722;2022-11-25T01:13:26;5.30;99.90
48264;DHT22;34086;51.076;13.722;2022-11-25T01:14:29;5.20;99.90
48264;DHT22;34086;51.076;13.722;2022-11-25T01:15:30;5.20;99.90
48264;DHT22;34086;51.076;13.722;2022-11-25T01:16:30;5.10;99.90
48264;DHT22;34086;51.076;13.722;2022-11-25T01:17:31;5.10;99.90
48264;DHT22;34086;51.076;13.722;2022-11-25T01:18:33;5.10;99.90
48264;DHT22;34086;51.076;13.722;2022-11-25T01:19:33;5.00;99.90
48264;DHT22;34086;51.076;13.722;2022-11-25T01:20:39;4.90;99.90
48264;DHT22;34086;51.076;13.722;2022-11-25T01:21:40;4.90;99.90
48264;DHT22;34086;51.076;13.722;2022-11-25T01:22:41;4.90;99.90
48264;DHT22;34086;51.076;13.722;2022-11-25T01:23:42;4.90;99.90
48264;DHT22;34086;51.076;13.722;2022-11-25T01:24:43;4.80;99.90
48264;DHT22;34086;51.076;13.722;2022-11-25T01:25:44;4.80;99.90
48264;DHT22;34086;51.076;13.722;2022-11-25T01:26:45;4.80;99.90
48264;DHT22;34086;51.076;13.722;2022-11-25T01:27:46;4.80;99.90
48264;DHT22;34086;51.076;13.722;2022-11-25T01:28:47;4.70;99.90
48264;DHT22;34086;51.076;13.722;2022-11-25T01:29:47;4.70;99.90
48264;DHT22;34086;51.076;13.722;2022-11-25T01:31:01;4.70;99.90
48264;DHT22;34086;51.076;13.722;2022-11-25T01:32:02;4.70;99.90
48264;DHT22;34086;51.076;13.722;2022-11-25T01:33:03;4.60;99.90
48264;DHT22;34086;51.076;13.722;2022-11-25T01:34:16;4.60;99.90
48264;DHT22;34086;51.076;13.722;2022-11-25T01:35:17;4.60;99.90
48264;DHT22;34086;51.076;13.722;2022-11-25T01:36:18;4.60;99.90
48264;DHT22;34086;51.076;13.722;2022-11-25T01:37:19;4.60;99.90
48264;DHT22;34086;51.076;13.722;2022-11-25T01:38:20;4.60;99.90
48264;DHT22;34086;51.076;13.722;2022-11-25T01:39:22;4.60;99.90
48264;DHT22;34086;51.076;13.722;2022-11-25T01:40:23;4.60;99.90
48264;DHT22;34086;51.076;13.722;2022-11-25T01:41:26;4.70;99.90
48264;DHT22;34086;51.076;13.722;2022-11-25T01:42:29;4.70;99.90
48264;DHT22;34086;51.076;13.722;2022-11-25T01:43:30;4.70;99.90
48264;DHT22;34086;51.076;13.722;2022-11-25T01:44:32;4.70;99.90
48264;DHT22;34086;51.076;13.722;2022-11-25T01:45:35;4.80;99.90
48264;DHT22;34086;51.076;13.722;2022-11-25T01:47:55;4.80;99.90
48264;DHT22;34086;51.076;13.722;2022-11-25T01:49:02;4.80;99.90
48264;DHT22;34086;51.076;13.722;2022-11-25T01:50:05;4.80;99.90
48264;DHT22;34086;51.076;13.722;2022-11-25T01:51:17;4.80;99.90
48264;DHT22;34086;51.076;13.722;2022-11-25T01:52:27;4.90;99.90
48264;DHT22;34086;51.076;13.722;2022-11-25T01:53:30;4.90;99.90
48264;DHT22;34086;51.076;13.722;2022-11-25T01:54:36;4.90;99.90
48264;DHT22;34086;51.076;13.722;2022-11-25T01:55:44;5.00;99.90
48264;DHT22;34086;51.076;13.722;2022-11-25T01:56:50;5.00;99.90
48264;DHT22;34086;51.076;13.722;2022-11-25T01:57:59;5.00;99.90
48264;DHT22;34086;51.076;13.722;2022-11-25T01:59:02;5.00;99.90
48264;DHT22;34086;51.076;13.722;2022-11-25T02:00:04;5.10;99.90
48264;DHT22;34086;51.076;13.722;2022-11-25T02:01:17;5.10;99.90
48264;DHT22;34086;51.076;13.722;2022-11-25T02:02:19;5.10;99.90
48264;DHT22;34086;51.076;13.722;2022-11-25T02:03:26;5.10;99.90
48264;DHT22;34086;51.076;13.722;2022-11-25T02:04:32;5.10;99.90
48264;DHT22;34086;51.076;13.722;2022-11-25T02:06:51;5.20;99.90
48264;DHT22;34086;51.076;13.722;2022-11-25T02:07:54;5.20;99.90
48264;DHT22;34086;51.076;13.722;2022-11-25T02:09:03;5.20;99.90
48264;DHT22;34086;51.076;13.722;2022-11-25T02:10:06;5.20;99.90
48264;DHT22;34086;51.076;13.722;2022-11-25T02:11:08;5.20;99.90
48264;DHT22;34086;51.076;13.722;2022-11-25T02:12:09;5.30;99.90
48264;DHT22;34086;51.076;13.722;2022-11-25T02:13:10;5.30;99.90
48264;DHT22;34086;51.076;13.722;2022-11-25T02:14:13;5.30;99.90
48264;DHT22;34086;51.076;13.722;2022-11-25T02:15:16;5.30;99.90
48264;DHT22;34086;51.076;13.722;2022-11-25T02:16:16;5.30;99.90
48264;DHT22;34086;51.076;13.722;2022-11-25T02:17:17;5.30;99.90
48264;DHT22;34086;51.076;13.722;2022-11-25T02:18:18;5.30;99.90
48264;DHT22;34086;51.076;13.722;2022-11-25T02:19:23;5.30;99.90
48264;DHT22;34086;51.076;13.722;2022-11-25T02:20:25;5.40;99.90
48264;DHT22;34086;51.076;13.722;2022-11-25T02:21:32;5.30;99.90
48264;DHT22;34086;51.076;13.722;2022-11-25T02:23:57;5.40;99.90
48264;DHT22;34086;51.076;13.722;2022-11-25T02:26:15;5.40;99.90
48264;DHT22;34086;51.076;13.722;2022-11-25T02:27:16;5.40;99.90
48264;DHT22;34086;51.076;13.722;2022-11-25T02:28:26;5.40;99.90
48264;DHT22;34086;51.076;13.722;2022-11-25T02:29:27;5.40;99.90
48264;DHT22;34086;51.076;13.722;2022-11-25T02:30:28;5.50;99.90
48264;DHT22;34086;51.076;13.722;2022-11-25T02:31:29;5.50;99.90
48264;DHT22;34086;51.076;13.722;2022-11-25T02:32:29;5.50;99.90
48264;DHT22;34086;51.076;13.722;2022-11-25T02:33:30;5.50;99.90
48264;DHT22;34086;51.076;13.722;2022-11-25T02:34:31;5.50;99.90
48264;DHT22;34086;51.076;13.722;2022-11-25T02:35:54;5.50;99.90
48264;DHT22;34086;51.076;13.722;2022-11-25T02:36:55;5.50;99.90
48264;DHT22;34086;51.076;13.722;2022-11-25T02:38:09;5.50;99.90
48264;DHT22;34086;51.076;13.722;2022-11-25T02:39:11;5.50;99.90
48264;DHT22;34086;51.076;13.722;2022-11-25T02:40:13;5.50;99.90
48264;DHT22;34086;51.076;13.722;2022-11-25T02:41:21;5.50;99.90
48264;DHT22;34086;51.076;13.722;2022-11-25T02:42:29;5.50;99.90
48264;DHT22;34086;51.076;13.722;2022-11-25T02:43:31;5.40;99.90
48264;DHT22;34086;51.076;13.722;2022-11-25T02:44:32;5.40;99.90
48264;DHT22;34086;51.076;13.722;2022-11-25T02:46:47;5.40;99.90
48264;DHT22;34086;51.076;13.722;2022-11-25T02:47:47;5.40;99.90
48264;DHT22;34086;51.076;13.722;2022-11-25T02:48:49;5.40;99.90
48264;DHT22;34086;51.076;13.722;2022-11-25T02:49:50;5.40;99.90
48264;DHT22;34086;51.076;13.722;2022-11-25T02:50:50;5.40;99.90
48264;DHT22;34086;51.076;13.722;2022-11-25T02:51:51;5.40;99.90
48264;DHT22;34086;51.076;13.722;2022-11-25T02:52:52;5.30;99.90
48264;DHT22;34086;51.076;13.722;2022-11-25T02:53:53;5.30;99.90
48264;DHT22;34086;51.076;13.722;2022-11-25T02:54:54;5.30;99.90
48264;DHT22;34086;51.076;13.722;2022-11-25T02:55:55;5.30;99.90
48264;DHT22;34086;51.076;13.722;2022-11-25T02:56:56;5.30;99.90
48264;DHT22;34086;51.076;13.722;2022-11-25T02:57:56;5.30;99.90
48264;DHT22;34086;51.076;13.722;2022-11-25T02:58:57;5.20;99.90
48264;DHT22;34086;51.076;13.722;2022-11-25T03:00:00;5.20;99.90
48264;DHT22;34086;51.076;13.722;2022-11-25T03:01:01;5.20;99.90
48264;DHT22;34086;51.076;13.722;2022-11-25T03:02:02;5.20;99.90
48264;DHT22;34086;51.076;13.722;2022-11-25T03:03:04;5.20;99.90
48264;DHT22;34086;51.076;13.722;2022-11-25T03:04:05;5.20;99.90
48264;DHT22;34086;51.076;13.722;2022-11-25T03:05:06;5.20;99.90
48264;DHT22;34086;51.076;13.722;2022-11-25T03:06:07;5.20;99.90
48264;DHT22;34086;51.076;13.722;2022-11-25T03:09:31;5.20;99.90
48264;DHT22;34086;51.076;13.722;2022-11-25T03:10:32;5.20;99.90
48264;DHT22;34086;51.076;13.722;2022-11-25T03:11:33;5.20;99.90
48264;DHT22;34086;51.076;13.722;2022-11-25T03:12:54;5.20;99.90
48264;DHT22;34086;51.076;13.722;2022-11-25T03:13:56;5.20;99.90
48264;DHT22;34086;51.076;13.722;2022-11-25T03:14:57;5.10;99.90
48264;DHT22;34086;51.076;13.722;2022-11-25T03:15:57;5.20;99.90
48264;DHT22;34086;51.076;13.722;2022-11-25T03:16:58;5.20;99.90
48264;DHT22;34086;51.076;13.722;2022-11-25T03:18:01;5.20;99.90
48264;DHT22;34086;51.076;13.722;2022-11-25T03:19:02;5.20;99.90
48264;DHT22;34086;51.076;13.722;2022-11-25T03:20:07;5.20;99.90
48264;DHT22;34086;51.076;13.722;2022-11-25T03:21:08;5.20;99.90
48264;DHT22;34086;51.076;13.722;2022-11-25T03:22:08;5.20;99.90
48264;DHT22;34086;51.076;13.722;2022-11-25T03:23:09;5.20;99.90
48264;DHT22;34086;51.076;13.722;2022-11-25T03:24:10;5.20;99.90
48264;DHT22;34086;51.076;13.722;2022-11-25T03:25:12;5.20;99.90
48264;DHT22;34086;51.076;13.722;2022-11-25T03:26:13;5.20;99.90
48264;DHT22;34086;51.076;13.722;2022-11-25T03:27:14;5.20;99.90
48264;DHT22;34086;51.076;13.722;2022-11-25T03:28:15;5.30;99.90
48264;DHT22;34086;51.076;13.722;2022-11-25T03:29:16;5.30;99.90
48264;DHT22;34086;51.076;13.722;2022-11-25T03:30:22;5.30;99.90
48264;DHT22;34086;51.076;13.722;2022-11-25T03:31:26;5.30;99.90
48264;DHT22;34086;51.076;13.722;2022-11-25T03:32:27;5.30;99.90
48264;DHT22;34086;51.076;13.722;2022-11-25T03:33:28;5.30;99.90
48264;DHT22;34086;51.076;13.722;2022-11-25T03:34:30;5.30;99.90
48264;DHT22;34086;51.076;13.722;2022-11-25T03:35:31;5.30;99.90
48264;DHT22;34086;51.076;13.722;2022-11-25T03:36:31;5.30;99.90
48264;DHT22;34086;51.076;13.722;2022-11-25T03:37:32;5.30;99.90
48264;DHT22;34086;51.076;13.722;2022-11-25T03:38:33;5.30;99.90
48264;DHT22;34086;51.076;13.722;2022-11-25T03:39:35;5.30;99.90
48264;DHT22;34086;51.076;13.722;2022-11-25T03:40:35;5.30;99.90
48264;DHT22;34086;51.076;13.722;2022-11-25T03:41:36;5.30;99.90
48264;DHT22;34086;51.076;13.722;2022-11-25T03:42:37;5.30;99.90
48264;DHT22;34086;51.076;13.722;2022-11-25T03:43:39;5.30;99.90
48264;DHT22;34086;51.076;13.722;2022-11-25T03:44:40;5.30;99.90
48264;DHT22;34086;51.076;13.722;2022-11-25T03:45:41;5.30;99.90
48264;DHT22;34086;51.076;13.722;2022-11-25T03:46:43;5.30;99.90
48264;DHT22;34086;51.076;13.722;2022-11-25T03:47:44;5.30;99.90
48264;DHT22;34086;51.076;13.722;2022-11-25T03:48:45;5.30;99.90
48264;DHT22;34086;51.076;13.722;2022-11-25T03:49:46;5.30;99.90
48264;DHT22;34086;51.076;13.722;2022-11-25T03:50:47;5.30;99.90
48264;DHT22;34086;51.076;13.722;2022-11-25T03:51:48;5.30;99.90
48264;DHT22;34086;51.076;13.722;2022-11-25T03:52:51;5.30;99.90
48264;DHT22;34086;51.076;13.722;2022-11-25T03:53:53;5.30;99.90
48264;DHT22;34086;51.076;13.722;2022-11-25T03:54:54;5.30;99.90
48264;DHT22;34086;51.076;13.722;2022-11-25T03:55:58;5.30;99.90
48264;DHT22;34086;51.076;13.722;2022-11-25T03:56:59;5.30;99.90
48264;DHT22;34086;51.076;13.722;2022-11-25T03:58:00;5.30;99.90
48264;DHT22;34086;51.076;13.722;2022-11-25T03:59:01;5.30;99.90
48264;DHT22;34086;51.076;13.722;2022-11-25T04:00:03;5.30;99.90
48264;DHT22;34086;51.076;13.722;2022-11-25T04:01:18;5.30;99.90
48264;DHT22;34086;51.076;13.722;2022-11-25T04:02:20;5.30;99.90
48264;DHT22;34086;51.076;13.722;2022-11-25T04:03:22;5.30;99.90
48264;DHT22;34086;51.076;13.722;2022-11-25T04:04:23;5.30;99.90
48264;DHT22;34086;51.076;13.722;2022-11-25T04:05:24;5.30;99.90
48264;DHT22;34086;51.076;13.722;2022-11-25T04:06:25;5.30;99.90
48264;DHT22;34086;51.076;13.722;2022-11-25T04:07:27;5.30;99.90
48264;DHT22;34086;51.076;13.722;2022-11-25T04:08:30;5.30;99.90
48264;DHT22;34086;51.076;13.722;2022-11-25T04:09:32;5.30;99.90
48264;DHT22;34086;51.076;13.722;2022-11-25T04:10:34;5.30;99.90
48264;DHT22;34086;51.076;13.722;2022-11-25T04:11:35;5.30;99.90
48264;DHT22;34086;51.076;13.722;2022-11-25T04:12:54;5.30;99.90
48264;DHT22;34086;51.076;13.722;2022-11-25T04:14:00;5.30;99.90
48264;DHT22;34086;51.076;13.722;2022-11-25T04:15:01;5.30;99.90
48264;DHT22;34086;51.076;13.722;2022-11-25T04:16:02;5.30;99.90
48264;DHT22;34086;51.076;13.722;2022-11-25T04:17:04;5.30;99.90
48264;DHT22;34086;51.076;13.722;2022-11-25T04:18:05;5.30;99.90
48264;DHT22;34086;51.076;13.722;2022-11-25T04:19:06;5.30;99.90
48264;DHT22;34086;51.076;13.722;2022-11-25T04:20:08;5.30;99.90
48264;DHT22;34086;51.076;13.722;2022-11-25T04:21:09;5.30;99.90
48264;DHT22;34086;51.076;13.722;2022-11-25T04:22:10;5.30;99.90
48264;DHT22;34086;51.076;13.722;2022-11-25T04:23:13;5.30;99.90
48264;DHT22;34086;51.076;13.722;2022-11-25T04:24:22;5.30;99.90
48264;DHT22;34086;51.076;13.722;2022-11-25T04:25:23;5.30;99.90
48264;DHT22;34086;51.076;13.722;2022-11-25T04:26:24;5.30;99.90
48264;DHT22;34086;51.076;13.722;2022-11-25T04:27:25;5.30;99.90
48264;DHT22;34086;51.076;13.722;2022-11-25T04:28:27;5.30;99.90
48264;DHT22;34086;51.076;13.722;2022-11-25T04:29:28;5.30;99.90
48264;DHT22;34086;51.076;13.722;2022-11-25T04:30:30;5.30;99.90
48264;DHT22;34086;51.076;13.722;2022-11-25T04:31:30;5.30;99.90
48264;DHT22;34086;51.076;13.722;2022-11-25T04:32:31;5.40;99.90
48264;DHT22;34086;51.076;13.722;2022-11-25T04:33:32;5.30;99.90
48264;DHT22;34086;51.076;13.722;2022-11-25T04:34:33;5.30;99.90
48264;DHT22;34086;51.076;13.722;2022-11-25T04:35:34;5.30;99.90
48264;DHT22;34086;51.076;13.722;2022-11-25T04:36:35;5.30;99.90
48264;DHT22;34086;51.076;13.722;2022-11-25T04:37:36;5.30;99.90
48264;DHT22;34086;51.076;13.722;2022-11-25T04:38:37;5.30;99.90
48264;DHT22;34086;51.076;13.722;2022-11-25T04:39:39;5.30;99.90
48264;DHT22;34086;51.076;13.722;2022-11-25T04:40:46;5.30;99.90
48264;DHT22;34086;51.076;13.722;2022-11-25T04:41:50;5.30;99.90
48264;DHT22;34086;51.076;13.722;2022-11-25T04:43:11;5.30;99.90
48264;DHT22;34086;51.076;13.722;2022-11-25T04:44:18;5.30;99.90
48264;DHT22;34086;51.076;13.722;2022-11-25T04:45:18;5.30;99.90
48264;DHT22;34086;51.076;13.722;2022-11-25T04:46:22;5.30;99.90
48264;DHT22;34086;51.076;13.722;2022-11-25T04:47:25;5.30;99.90
48264;DHT22;34086;51.076;13.722;2022-11-25T04:48:26;5.30;99.90
48264;DHT22;34086;51.076;13.722;2022-11-25T04:49:26;5.30;99.90
48264;DHT22;34086;51.076;13.722;2022-11-25T04:50:27;5.30;99.90
48264;DHT22;34086;51.076;13.722;2022-11-25T04:51:39;5.30;99.90
48264;DHT22;34086;51.076;13.722;2022-11-25T04:52:40;5.30;99.90
48264;DHT22;34086;51.076;13.722;2022-11-25T04:53:41;5.30;99.90
48264;DHT22;34086;51.076;13.722;2022-11-25T04:54:44;5.30;99.90
48264;DHT22;34086;51.076;13.722;2022-11-25T04:55:46;5.30;99.90
48264;DHT22;34086;51.076;13.722;2022-11-25T04:56:49;5.30;99.90
48264;DHT22;34086;51.076;13.722;2022-11-25T04:57:51;5.30;99.90
48264;DHT22;34086;51.076;13.722;2022-11-25T04:58:53;5.30;99.90
48264;DHT22;34086;51.076;13.722;2022-11-25T05:00:19;5.30;99.90
48264;DHT22;34086;51.076;13.722;2022-11-25T05:01:21;5.20;99.90
48264;DHT22;34086;51.076;13.722;2022-11-25T05:02:25;5.20;99.90
48264;DHT22;34086;51.076;13.722;2022-11-25T05:03:34;5.20;99.90
48264;DHT22;34086;51.076;13.722;2022-11-25T05:04:35;5.20;99.90
48264;DHT22;34086;51.076;13.722;2022-11-25T05:05:37;5.20;99.90
48264;DHT22;34086;51.076;13.722;2022-11-25T05:06:38;5.20;99.90
48264;DHT22;34086;51.076;13.722;2022-11-25T05:07:40;5.10;99.90
48264;DHT22;34086;51.076;13.722;2022-11-25T05:08:41;5.10;99.90
48264;DHT22;34086;51.076;13.722;2022-11-25T05:09:41;5.10;99.90
48264;DHT22;34086;51.076;13.722;2022-11-25T05:10:50;5.10;99.90
48264;DHT22;34086;51.076;13.722;2022-11-25T05:11:51;5.00;99.90
48264;DHT22;34086;51.076;13.722;2022-11-25T05:12:52;5.00;99.90
48264;DHT22;34086;51.076;13.722;2022-11-25T05:13:55;5.00;99.90
48264;DHT22;34086;51.076;13.722;2022-11-25T05:14:57;5.00;99.90
48264;DHT22;34086;51.076;13.722;2022-11-25T05:15:58;4.90;99.90
48264;DHT22;34086;51.076;13.722;2022-11-25T05:17:03;4.90;99.90
48264;DHT22;34086;51.076;13.722;2022-11-25T05:18:04;4.90;99.90
48264;DHT22;34086;51.076;13.722;2022-11-25T05:19:23;4.80;99.90
48264;DHT22;34086;51.076;13.722;2022-11-25T05:20:25;4.70;99.90
48264;DHT22;34086;51.076;13.722;2022-11-25T05:21:26;4.70;99.90
48264;DHT22;34086;51.076;13.722;2022-11-25T05:22:30;4.70;99.90
48264;DHT22;34086;51.076;13.722;2022-11-25T05:23:31;4.60;99.90
48264;DHT22;34086;51.076;13.722;2022-11-25T05:24:32;4.50;99.90
48264;DHT22;34086;51.076;13.722;2022-11-25T05:25:33;4.50;99.90
48264;DHT22;34086;51.076;13.722;2022-11-25T05:26:55;4.50;99.90
48264;DHT22;34086;51.076;13.722;2022-11-25T05:27:56;4.50;99.90
48264;DHT22;34086;51.076;13.722;2022-11-25T05:28:57;4.40;99.90
48264;DHT22;34086;51.076;13.722;2022-11-25T05:29:58;4.40;99.90
48264;DHT22;34086;51.076;13.722;2022-11-25T05:30:59;4.40;99.90
48264;DHT22;34086;51.076;13.722;2022-11-25T05:31:59;4.30;99.90
48264;DHT22;34086;51.076;13.722;2022-11-25T05:33:00;4.30;99.90
48264;DHT22;34086;51.076;13.722;2022-11-25T05:34:01;4.30;99.90
48264;DHT22;34086;51.076;13.722;2022-11-25T05:35:04;4.30;99.90
48264;DHT22;34086;51.076;13.722;2022-11-25T05:36:04;4.20;99.90
48264;DHT22;34086;51.076;13.722;2022-11-25T05:37:18;4.20;99.90
48264;DHT22;34086;51.076;13.722;2022-11-25T05:38:26;4.20;99.90
48264;DHT22;34086;51.076;13.722;2022-11-25T05:39:27;4.20;99.90
48264;DHT22;34086;51.076;13.722;2022-11-25T05:40:48;4.20;99.90
48264;DHT22;34086;51.076;13.722;2022-11-25T05:41:51;4.10;99.90
48264;DHT22;34086;51.076;13.722;2022-11-25T05:42:52;4.10;99.90
48264;DHT22;34086;51.076;13.722;2022-11-25T05:43:53;4.10;99.90
48264;DHT22;34086;51.076;13.722;2022-11-25T05:44:55;4.10;99.90
48264;DHT22;34086;51.076;13.722;2022-11-25T05:45:56;4.10;99.90
48264;DHT22;34086;51.076;13.722;2022-11-25T05:47:00;4.10;99.90
48264;DHT22;34086;51.076;13.722;2022-11-25T05:48:01;4.00;99.90
48264;DHT22;34086;51.076;13.722;2022-11-25T05:49:03;4.00;99.90
48264;DHT22;34086;51.076;13.722;2022-11-25T05:50:05;4.00;99.90
48264;DHT22;34086;51.076;13.722;2022-11-25T05:51:07;4.00;99.90
48264;DHT22;34086;51.076;13.722;2022-11-25T05:52:08;4.00;99.90
48264;DHT22;34086;51.076;13.722;2022-11-25T05:53:17;4.00;99.90
48264;DHT22;34086;51.076;13.722;2022-11-25T05:54:19;4.00;99.90
48264;DHT22;34086;51.076;13.722;2022-11-25T05:55:20;4.00;99.90
48264;DHT22;34086;51.076;13.722;2022-11-25T05:56:22;4.00;99.90
48264;DHT22;34086;51.076;13.722;2022-11-25T05:58:02;4.00;99.90
48264;DHT22;34086;51.076;13.722;2022-11-25T05:59:05;4.00;99.90
48264;DHT22;34086;51.076;13.722;2022-11-25T06:00:31;4.00;99.90
48264;DHT22;34086;51.076;13.722;2022-11-25T06:01:35;3.90;99.90
48264;DHT22;34086;51.076;13.722;2022-11-25T06:02:37;3.90;99.90
48264;DHT22;34086;51.076;13.722;2022-11-25T06:03:37;3.90;99.90
48264;DHT22;34086;51.076;13.722;2022-11-25T06:04:38;3.90;99.90
48264;DHT22;34086;51.076;13.722;2022-11-25T06:05:39;3.90;99.90
48264;DHT22;34086;51.076;13.722;2022-11-25T06:06:41;3.90;99.90
48264;DHT22;34086;51.076;13.722;2022-11-25T06:07:42;3.90;99.90
48264;DHT22;34086;51.076;13.722;2022-11-25T06:08:45;3.80;99.90
48264;DHT22;34086;51.076;13.722;2022-11-25T06:09:45;3.90;99.90
48264;DHT22;34086;51.076;13.722;2022-11-25T06:10:46;3.90;99.90
48264;DHT22;34086;51.076;13.722;2022-11-25T06:11:47;3.90;99.90
48264;DHT22;34086;51.076;13.722;2022-11-25T06:12:48;3.80;99.90
48264;DHT22;34086;51.076;13.722;2022-11-25T06:13:48;3.80;99.90
48264;DHT22;34086;51.076;13.722;2022-11-25T06:14:50;3.80;99.90
48264;DHT22;34086;51.076;13.722;2022-11-25T06:15:51;3.80;99.90
48264;DHT22;34086;51.076;13.722;2022-11-25T06:16:52;3.80;99.90
48264;DHT22;34086;51.076;13.722;2022-11-25T06:17:58;3.70;99.90
48264;DHT22;34086;51.076;13.722;2022-11-25T06:19:01;3.70;99.90
48264;DHT22;34086;51.076;13.722;2022-11-25T06:20:07;3.70;99.90
48264;DHT22;34086;51.076;13.722;2022-11-25T06:21:10;3.70;99.90
48264;DHT22;34086;51.076;13.722;2022-11-25T06:22:11;3.70;99.90
48264;DHT22;34086;51.076;13.722;2022-11-25T06:23:12;3.70;99.90
48264;DHT22;34086;51.076;13.722;2022-11-25T06:24:14;3.70;99.90
48264;DHT22;34086;51.076;13.722;2022-11-25T06:25:17;3.70;99.90
48264;DHT22;34086;51.076;13.722;2022-11-25T06:26:20;3.70;99.90
48264;DHT22;34086;51.076;13.722;2022-11-25T06:27:21;3.60;99.90
48264;DHT22;34086;51.076;13.722;2022-11-25T06:28:22;3.60;99.90
48264;DHT22;34086;51.076;13.722;2022-11-25T06:29:24;3.60;99.90
48264;DHT22;34086;51.076;13.722;2022-11-25T06:30:25;3.60;99.90
48264;DHT22;34086;51.076;13.722;2022-11-25T06:31:40;3.60;99.90
48264;DHT22;34086;51.076;13.722;2022-11-25T06:33:00;3.60;99.90
48264;DHT22;34086;51.076;13.722;2022-11-25T06:34:01;3.60;99.90
48264;DHT22;34086;51.076;13.722;2022-11-25T06:35:02;3.60;99.90
48264;DHT22;34086;51.076;13.722;2022-11-25T06:36:24;3.60;99.90
48264;DHT22;34086;51.076;13.722;2022-11-25T06:37:25;3.60;99.90
48264;DHT22;34086;51.076;13.722;2022-11-25T06:38:25;3.60;99.90
48264;DHT22;34086;51.076;13.722;2022-11-25T06:39:26;3.60;99.90
48264;DHT22;34086;51.076;13.722;2022-11-25T06:40:27;3.60;99.90
48264;DHT22;34086;51.076;13.722;2022-11-25T06:41:27;3.60;99.90
48264;DHT22;34086;51.076;13.722;2022-11-25T06:42:28;3.60;99.90
48264;DHT22;34086;51.076;13.722;2022-11-25T06:43:29;3.60;99.90
48264;DHT22;34086;51.076;13.722;2022-11-25T06:44:30;3.60;99.90
48264;DHT22;34086;51.076;13.722;2022-11-25T06:45:31;3.60;99.90
48264;DHT22;34086;51.076;13.722;2022-11-25T06:46:32;3.50;99.90